Time;durP1;ratioP1;P1;durP2;ratioP2;P2;SDS_P1;SDS_P2;PMS_P1;PMS_P2;Temp;Humidity;BMP_temperature;BMP_pressure;BME280_temperature;BME280_humidity;BME280_pressure;Samples;Min_cycle;Max_cycle;Signal;HPM_P1;HPM_P2
2020/12/04 00:00:26;;;;;;;7.40;5.07;;;;;;;4.35;92.42;98191.00;5072409;28;20320;-77
2020/12/04 00:02:51;;;;;;;6.10;4.77;;;;;;;4.35;92.73;98191.00;5070759;28;20279;-78
2020/12/04 00:05:17;;;;;;;8.37;5.43;;;;;;;4.33;92.28;98181.69;5071586;28;20032;-77
2020/12/04 00:07:42;;;;;;;8.23;5.43;;;;;;;4.31;92.13;98166.44;5070425;28;20275;-76
2020/12/04 00:10:07;;;;;;;8.30;5.47;;;;;;;4.34;92.60;98163.91;5071782;28;20020;-78
2020/12/04 00:12:32;;;;;;;7.10;4.90;;;;;;;4.35;92.03;98160.50;5070085;28;20036;-77
2020/12/04 00:14:58;;;;;;;7.03;4.33;;;;;;;4.31;91.95;98158.81;5071626;28;20373;-79
2020/12/04 00:17:23;;;;;;;6.33;4.43;;;;;;;4.30;92.06;98151.19;5070649;28;20032;-77
2020/12/04 00:19:48;;;;;;;6.90;5.05;;;;;;;4.29;92.22;98147.78;5071767;28;20028;-79
2020/12/04 00:22:14;;;;;;;9.27;4.23;;;;;;;4.27;92.06;98146.09;5070273;28;20443;-77
2020/12/04 00:24:39;;;;;;;8.00;5.38;;;;;;;4.29;92.76;98141.84;5070260;28;20397;-77
2020/12/04 00:27:04;;;;;;;7.97;5.03;;;;;;;4.30;92.49;98131.69;5070925;28;20120;-79
2020/12/04 00:29:30;;;;;;;6.13;4.93;;;;;;;4.29;92.41;98135.06;5069533;28;20024;-77
2020/12/04 00:31:58;;;;;;;7.93;4.75;;;;;;;4.27;92.22;98118.13;5070231;28;20321;-78
2020/12/04 00:34:25;;;;;;;7.23;5.13;;;;;;;4.27;91.98;98126.59;5071093;28;20028;-78
2020/12/04 00:36:51;;;;;;;6.20;4.77;;;;;;;4.25;92.28;98110.50;5070006;28;20016;-78
2020/12/04 00:39:16;;;;;;;;;;;;;;;4.27;92.13;98103.72;5070474;28;20059;-77
2020/12/04 00:41:43;;;;;;;7.83;5.47;;;;;;;4.26;92.64;98102.03;5069499;28;20347;-80
2020/12/04 00:44:09;;;;;;;10.43;5.70;;;;;;;4.25;91.67;98091.88;5070812;28;20029;-76
2020/12/04 00:46:35;;;;;;;6.95;4.68;;;;;;;4.22;92.34;98090.13;5070470;28;20078;-78
2020/12/04 00:49:00;;;;;;;7.85;5.38;;;;;;;4.21;92.66;98096.06;5070748;28;20032;-78
2020/12/04 00:51:26;;;;;;;8.20;5.40;;;;;;;4.23;93.11;98086.78;5071070;28;20032;-78
2020/12/04 00:53:51;;;;;;;7.38;5.18;;;;;;;4.22;92.21;98096.91;5069299;28;20482;-77
2020/12/04 00:56:17;;;;;;;8.38;5.85;;;;;;;4.21;92.55;98078.28;5069680;28;20076;-78
2020/12/04 00:58:45;;;;;;;8.82;5.85;;;;;;;4.20;92.14;98071.50;5071014;28;20036;-78
2020/12/04 01:01:10;;;;;;;8.03;5.40;;;;;;;4.17;92.14;98071.47;5069678;28;20027;-78
2020/12/04 01:03:35;;;;;;;7.43;5.60;;;;;;;4.17;92.00;98068.94;5069096;28;20032;-78
2020/12/04 01:06:00;;;;;;;8.27;5.17;;;;;;;4.19;91.90;98057.09;5070661;28;20644;-78
2020/12/04 01:08:26;;;;;;;6.33;4.80;;;;;;;4.18;91.98;98046.91;5070543;28;20154;-78
2020/12/04 01:10:51;;;;;;;7.20;5.67;;;;;;;4.17;91.99;98053.69;5069348;28;20279;-77
2020/12/04 01:13:16;;;;;;;5.90;4.57;;;;;;;4.19;91.66;98052.00;5070640;28;20640;-77
2020/12/04 01:15:41;;;;;;;5.77;4.53;;;;;;;4.17;91.54;98038.44;5069223;28;20788;-81
2020/12/04 01:18:07;;;;;;;7.97;5.65;;;;;;;4.13;92.16;98035.91;5071149;28;20027;-78
2020/12/04 01:20:32;;;;;;;10.23;5.93;;;;;;;4.14;92.66;98030.81;5072386;28;20032;-78
2020/12/04 01:22:57;;;;;;;7.78;5.75;;;;;;;4.14;92.45;98029.97;5070230;28;20095;-78
2020/12/04 01:25:23;;;;;;;7.93;5.53;;;;;;;4.13;92.51;98018.97;5069995;28;20042;-82
2020/12/04 01:27:48;;;;;;;7.27;5.50;;;;;;;4.11;92.74;98014.72;5071085;28;20016;-77
2020/12/04 01:30:13;;;;;;;6.53;4.67;;;;;;;4.13;91.99;98020.66;5070752;28;20678;-78
2020/12/04 01:32:39;;;;;;;6.95;5.13;;;;;;;4.13;92.37;98013.03;5068979;28;20025;-79
2020/12/04 01:35:04;;;;;;;8.50;5.57;;;;;;;4.13;92.28;98005.41;5070061;28;20020;-78
2020/12/04 01:37:30;;;;;;;7.45;5.15;;;;;;;4.13;91.59;98001.19;5069046;28;20024;-78
2020/12/04 01:39:55;;;;;;;6.88;4.90;;;;;;;4.13;91.68;97997.78;5069725;28;20111;-78
2020/12/04 01:42:21;;;;;;;7.50;4.53;;;;;;;4.13;91.75;97985.94;5070743;28;20105;-78
2020/12/04 01:44:46;;;;;;;7.88;5.82;;;;;;;4.13;92.35;97997.78;5068953;28;20023;-79
2020/12/04 01:47:12;;;;;;;6.53;4.93;;;;;;;4.11;92.09;97991.88;5071128;28;20382;-78
2020/12/04 01:49:37;;;;;;;7.75;5.75;;;;;;;4.10;92.43;97988.47;5069137;28;20036;-78
2020/12/04 01:52:03;;;;;;;7.20;5.85;;;;;;;4.11;92.07;97982.53;5069444;28;20031;-80
2020/12/04 01:54:31;;;;;;;7.22;4.95;;;;;;;4.09;92.61;97979.16;5069498;28;20115;-79
2020/12/04 01:56:56;;;;;;;6.30;5.00;;;;;;;4.07;92.43;97963.06;5069491;28;20024;-79
2020/12/04 01:59:22;;;;;;;6.57;5.07;;;;;;;4.09;92.46;97963.91;5071200;28;20024;-77
2020/12/04 02:01:48;;;;;;;7.40;5.40;;;;;;;4.10;92.85;97973.22;5069308;28;20143;-79
2020/12/04 02:04:15;;;;;;;8.27;6.30;;;;;;;4.09;93.01;97963.91;5069031;28;20321;-78
2020/12/04 02:06:52;;;;;;;10.30;6.30;;;;;;;4.07;92.39;97951.22;5068394;28;20021;-78
2020/12/04 02:09:33;;;;;;;10.67;5.53;;;;;;;4.07;92.75;97952.91;5069227;28;20060;-80
2020/12/04 02:12:01;;;;;;;8.37;6.00;;;;;;;4.07;93.20;97947.81;5068627;28;20036;-79
2020/12/04 02:14:28;;;;;;;9.30;5.27;;;;;;;4.10;92.85;97934.28;5069856;28;20021;-78
2020/12/04 02:17:02;;;;;;;7.50;5.13;;;;;;;4.11;92.37;97936.81;5068690;28;20614;-78
2020/12/04 02:19:27;;;;;;;9.40;5.63;;;;;;;4.07;92.69;97919.88;5067293;28;20024;-77
2020/12/04 02:21:53;;;;;;;8.93;6.30;;;;;;;4.07;93.09;97922.41;5069393;28;20024;-77
2020/12/04 02:24:24;;;;;;;6.88;5.30;;;;;;;4.03;92.90;97910.56;5067659;28;20032;-79
2020/12/04 02:26:50;;;;;;;7.90;5.73;;;;;;;4.04;92.99;97910.56;5069421;28;20085;-78
2020/12/04 02:29:15;;;;;;;7.55;5.80;;;;;;;4.04;92.84;97897.03;5070316;28;20028;-78
2020/12/04 02:31:40;;;;;;;9.43;6.07;;;;;;;4.04;92.56;97894.47;5068133;28;20035;-77
2020/12/04 02:34:05;;;;;;;9.10;5.57;;;;;;;4.07;92.82;97890.25;5069182;28;20259;-79
2020/12/04 02:36:31;;;;;;;7.30;5.43;;;;;;;4.08;92.67;97888.56;5068287;28;20029;-78
2020/12/04 02:38:56;;;;;;;8.43;6.33;;;;;;;4.10;92.91;97884.31;5068021;28;20029;-78
2020/12/04 02:41:21;;;;;;;6.70;4.43;;;;;;;4.10;91.74;97866.53;5069911;28;20643;-78
2020/12/04 02:43:46;;;;;;;6.00;4.57;;;;;;;4.12;91.96;97867.38;5068092;28;20024;-77
2020/12/04 02:46:12;;;;;;;6.90;4.90;;;;;;;4.13;91.81;97874.16;5068955;28;20527;-81
2020/12/04 02:48:37;;;;;;;6.97;5.07;;;;;;;4.13;91.98;97863.16;5068023;28;20027;-76
2020/12/04 02:51:06;;;;;;;5.93;4.20;;;;;;;4.14;91.34;97850.47;5067902;28;20055;-78
2020/12/04 02:53:31;;;;;;;6.20;3.90;;;;;;;4.15;91.71;97848.75;5067831;28;20372;-79
2020/12/04 02:55:56;;;;;;;4.67;3.40;;;;;;;4.16;91.47;97858.06;5069428;28;20043;-77
2020/12/04 02:58:22;;;;;;;6.10;4.00;;;;;;;4.16;91.50;97848.75;5067917;28;20024;-78
2020/12/04 03:00:47;;;;;;;5.17;3.90;;;;;;;4.17;92.07;97844.53;5069971;28;20037;-78
2020/12/04 03:03:12;;;;;;;7.07;4.07;;;;;;;4.18;91.48;97842.00;5068139;28;20290;-78
2020/12/04 03:05:37;;;;;;;6.23;4.30;;;;;;;4.18;91.87;97831.81;5069287;28;20024;-79
2020/12/04 03:08:03;;;;;;;5.00;3.47;;;;;;;4.20;90.99;97832.69;5067982;28;20283;-76
2020/12/04 03:10:28;;;;;;;5.07;3.53;;;;;;;4.22;91.42;97833.53;5071924;28;20024;-78
2020/12/04 03:12:53;;;;;;;5.77;3.83;;;;;;;4.28;91.15;97830.16;5071364;28;20370;-78
2020/12/04 03:15:18;;;;;;;4.95;3.35;;;;;;;4.23;90.82;97832.69;5072687;28;20020;-78
2020/12/04 03:17:44;;;;;;;5.90;3.60;;;;;;;4.21;91.20;97823.34;5072189;28;20543;-78
2020/12/04 03:20:09;;;;;;;5.67;3.80;;;;;;;4.20;91.63;97829.28;5071932;28;20266;-78
2020/12/04 03:22:35;;;;;;;5.80;3.30;;;;;;;4.24;91.12;97816.63;5073153;28;20270;-79
2020/12/04 03:25:01;;;;;;;4.37;3.10;;;;;;;4.18;91.48;97829.28;5071262;28;20070;-78
2020/12/04 03:27:26;;;;;;;6.20;4.03;;;;;;;4.17;91.86;97816.59;5072618;28;20028;-78
2020/12/04 03:29:51;;;;;;;5.33;3.57;;;;;;;4.15;91.81;97810.66;5074721;28;20779;-78
2020/12/04 03:32:16;;;;;;;5.82;4.13;;;;;;;4.15;92.32;97808.97;5072936;28;20028;-77
2020/12/04 03:34:42;;;;;;;5.40;3.47;;;;;;;4.15;91.91;97803.03;5073840;28;20115;-78
2020/12/04 03:37:07;;;;;;;5.97;3.67;;;;;;;4.17;91.57;97802.19;5073285;28;20601;-77
2020/12/04 03:39:32;;;;;;;6.03;3.97;;;;;;;4.20;92.12;97794.56;5073638;28;20028;-78
2020/12/04 03:41:58;;;;;;;4.35;3.20;;;;;;;4.19;91.67;97790.34;5071911;28;20020;-79
2020/12/04 03:44:23;;;;;;;3.95;3.35;;;;;;;4.26;91.46;97789.50;5071901;28;20082;-79
2020/12/04 03:46:48;;;;;;;4.70;3.20;;;;;;;4.25;91.73;97792.06;5071457;28;20029;-77
2020/12/04 03:49:15;;;;;;;4.13;2.83;;;;;;;4.24;91.54;97783.59;5070825;28;20030;-78
2020/12/04 03:51:43;;;;;;;4.50;3.10;;;;;;;4.30;91.68;97787.81;5070849;28;20028;-77
2020/12/04 03:54:13;;;;;;;5.27;3.23;;;;;;;4.30;91.65;97786.13;5070815;28;20031;-78
2020/12/04 03:56:38;;;;;;;3.20;2.50;;;;;;;4.32;91.00;97779.34;5072847;28;20044;-77
2020/12/04 03:59:03;;;;;;;3.58;2.85;;;;;;;4.34;91.52;97782.72;5072992;28;20058;-78
2020/12/04 04:01:30;;;;;;;4.15;2.63;;;;;;;4.33;91.76;97786.09;5071910;28;20036;-78
2020/12/04 04:03:55;;;;;;;4.87;3.20;;;;;;;4.38;91.69;97783.56;5069986;28;20021;-79
2020/12/04 04:06:20;;;;;;;4.60;3.10;;;;;;;4.40;90.93;97781.00;5072453;28;20027;-77
2020/12/04 04:08:46;;;;;;;3.80;2.70;;;;;;;4.46;91.47;97781.00;5072476;28;20819;-79
2020/12/04 04:11:11;;;;;;;3.17;2.37;;;;;;;4.48;91.07;97779.31;5071344;28;20275;-78
2020/12/04 04:13:37;;;;;;;3.53;2.05;;;;;;;4.56;90.77;97775.06;5072261;28;20025;-79
2020/12/04 04:16:03;;;;;;;4.10;2.30;;;;;;;4.58;90.72;97770.84;5071169;28;20028;-79
2020/12/04 04:18:28;;;;;;;;;;;;;;;4.64;90.18;97776.75;5072961;28;20027;-79
2020/12/04 04:20:54;;;;;;;2.97;1.80;;;;;;;4.66;90.05;97780.13;5071220;28;20015;-78
2020/12/04 04:23:19;;;;;;;2.97;2.03;;;;;;;4.66;90.28;97779.28;5071987;28;20028;-78
2020/12/04 04:25:44;;;;;;;3.60;1.67;;;;;;;4.64;90.54;97786.06;5070835;28;20074;-78
2020/12/04 04:28:12;;;;;;;2.47;1.60;;;;;;;4.68;90.09;97783.50;5071376;28;20486;-78
2020/12/04 04:30:38;;;;;;;2.77;1.60;;;;;;;4.75;89.71;97796.22;5073026;28;20296;-79
2020/12/04 04:33:04;;;;;;;5.60;1.90;;;;;;;4.75;90.32;97794.50;5070482;28;20028;-78
2020/12/04 04:35:30;;;;;;;2.63;1.80;;;;;;;4.74;90.35;97786.88;5071946;28;20031;-77
2020/12/04 04:37:55;;;;;;;2.60;1.75;;;;;;;4.71;90.50;97789.44;5070982;28;20054;-79
2020/12/04 04:40:21;;;;;;;3.30;1.45;;;;;;;4.78;89.72;97774.16;5070870;28;20505;-78
2020/12/04 04:42:46;;;;;;;2.78;1.70;;;;;;;4.82;89.62;97765.66;5070729;28;20032;-79
2020/12/04 04:45:14;;;;;;;2.43;1.40;;;;;;;4.88;89.68;97755.50;5071264;28;20032;-79
2020/12/04 04:47:42;;;;;;;2.10;1.50;;;;;;;4.96;89.24;97758.00;5070318;28;20029;-78
2020/12/04 04:50:07;;;;;;;2.30;1.40;;;;;;;4.90;89.35;97752.94;5072457;28;20058;-78
2020/12/04 04:52:34;;;;;;;2.78;1.10;;;;;;;4.88;89.92;97762.28;5072810;28;20028;-78
2020/12/04 04:54:59;;;;;;;2.33;1.50;;;;;;;4.87;89.86;97758.88;5072386;28;20029;-78
2020/12/04 04:57:25;;;;;;;3.37;1.60;;;;;;;4.91;90.17;97757.19;5070702;28;20027;-79
2020/12/04 04:59:53;;;;;;;3.20;1.50;;;;;;;4.91;90.17;97763.13;5072235;28;20270;-78
2020/12/04 05:02:18;;;;;;;3.40;1.57;;;;;;;5.04;89.74;97758.81;5070613;28;20109;-78
2020/12/04 05:04:46;;;;;;;1.90;1.20;;;;;;;5.14;89.42;97759.63;5071000;28;20504;-77
2020/12/04 05:07:12;;;;;;;2.80;1.40;;;;;;;5.11;89.71;97763.03;5070915;28;20103;-78
2020/12/04 05:09:37;;;;;;;3.97;1.70;;;;;;;5.11;89.97;97757.09;5071101;28;20108;-77
2020/12/04 05:12:03;;;;;;;4.78;1.10;;;;;;;5.19;90.37;97755.34;5070929;28;20033;-79
2020/12/04 05:14:28;;;;;;;2.05;1.27;;;;;;;5.34;90.05;97752.75;5071197;28;20016;-80
2020/12/04 05:16:56;;;;;;;1.88;1.00;;;;;;;5.54;89.49;97739.91;5070061;28;20069;-78
2020/12/04 05:19:32;;;;;;;4.77;1.70;;;;;;;5.59;89.33;97740.72;5070998;28;20108;-78
2020/12/04 05:22:15;;;;;;;2.25;1.10;;;;;;;5.74;88.37;97735.50;5070823;28;20021;-79
2020/12/04 05:24:43;;;;;;;3.27;0.80;;;;;;;5.80;88.22;97724.44;5070318;28;20071;-77
2020/12/04 05:27:21;;;;;;;1.70;0.90;;;;;;;5.81;88.22;97736.31;5070924;28;20024;-78
2020/12/04 05:29:47;;;;;;;2.47;1.30;;;;;;;5.82;88.18;97733.75;5070733;28;20029;-78
2020/12/04 05:32:16;;;;;;;1.97;1.03;;;;;;;5.82;88.17;97738.00;5069711;28;20026;-78
2020/12/04 05:34:42;;;;;;;2.97;1.20;;;;;;;5.85;87.85;97730.34;5070536;28;20292;-79
2020/12/04 05:37:11;;;;;;;2.10;0.90;;;;;;;5.86;87.67;97739.69;5068380;28;20117;-77
2020/12/04 05:39:46;;;;;;;1.90;1.10;;;;;;;5.87;87.18;97737.13;5070729;28;20436;-76
2020/12/04 05:42:27;;;;;;;2.30;1.13;;;;;;;5.92;87.47;97732.03;5068334;28;20074;-78
2020/12/04 05:44:54;;;;;;;1.70;0.83;;;;;;;5.99;86.27;97748.94;5069805;28;20457;-77
2020/12/04 05:47:20;;;;;;;3.90;0.87;;;;;;;5.96;87.24;97754.06;5070601;28;20104;-78
2020/12/04 05:49:46;;;;;;;3.07;1.07;;;;;;;5.93;87.16;97747.31;5070249;28;20048;-78
2020/12/04 05:52:14;;;;;;;2.63;1.20;;;;;;;5.92;87.53;97758.34;5070005;28;20083;-78
2020/12/04 05:54:41;;;;;;;1.93;1.10;;;;;;;5.95;87.80;97754.94;5068799;28;20013;-80
2020/12/04 05:57:07;;;;;;;3.40;1.00;;;;;;;5.95;87.37;97754.94;5067704;28;20029;-78
2020/12/04 05:59:33;;;;;;;1.97;1.00;;;;;;;6.05;86.95;97754.00;5069094;28;20028;-78
2020/12/04 06:01:58;;;;;;;4.55;1.08;;;;;;;6.07;86.41;97742.09;5070937;28;20024;-79
2020/12/04 06:04:24;;;;;;;3.27;0.90;;;;;;;6.10;86.66;97753.94;5069890;28;20039;-78
2020/12/04 06:06:50;;;;;;;1.83;0.88;;;;;;;6.21;85.37;97745.38;5069484;28;20271;-78
2020/12/04 06:09:16;;;;;;;4.30;0.68;;;;;;;6.34;84.59;97745.25;5069307;28;20078;-77
2020/12/04 06:11:43;;;;;;;3.00;0.80;;;;;;;6.32;85.14;97752.06;5068527;28;20103;-76
2020/12/04 06:14:16;;;;;;;2.87;0.87;;;;;;;6.27;85.62;97756.38;5069642;28;20089;-79
2020/12/04 06:17:00;;;;;;;1.90;0.70;;;;;;;6.33;85.05;97761.41;5068746;28;20557;-76
2020/12/04 06:19:36;;;;;;;3.90;0.60;;;;;;;6.34;84.91;97769.03;5070106;28;20106;-78
2020/12/04 06:22:07;;;;;;;1.77;0.80;;;;;;;6.49;83.76;97757.84;5068933;28;20026;-77
2020/12/04 06:24:55;;;;;;;2.40;1.00;;;;;;;6.42;84.58;97757.06;5068690;28;20040;-78
2020/12/04 06:27:36;;;;;;;3.57;1.00;;;;;;;6.52;83.77;97748.50;5068303;28;20105;-80
2020/12/04 06:30:03;;;;;;;2.03;0.90;;;;;;;6.55;82.68;97760.38;5069380;28;20032;-77
2020/12/04 06:32:41;;;;;;;1.30;0.50;;;;;;;6.58;82.68;97767.97;5070581;28;20127;-79
2020/12/04 06:35:07;;;;;;;1.43;0.73;;;;;;;6.64;80.08;97751.75;5069189;28;20036;-79
2020/12/04 06:37:44;;;;;;;2.70;0.55;;;;;;;6.60;79.43;97766.25;5069207;28;20033;-77
2020/12/04 06:40:29;;;;;;;1.87;0.60;;;;;;;6.42;80.23;97777.47;5070572;28;20017;-78
2020/12/04 06:42:59;;;;;;;2.27;0.80;;;;;;;6.34;81.78;97786.88;5069282;28;20021;-79
2020/12/04 06:45:45;;;;;;;1.70;0.50;;;;;;;6.32;79.71;97769.91;5077154;28;20035;-77
2020/12/04 06:48:16;;;;;;;2.57;0.50;;;;;;;6.40;77.96;97786.84;5074385;28;20494;-78
2020/12/04 06:50:44;;;;;;;2.07;0.63;;;;;;;6.35;77.97;97773.28;5074096;28;20275;-79
2020/12/04 06:53:11;;;;;;;3.50;0.67;;;;;;;6.30;79.44;97802.22;5073410;28;20024;-77
2020/12/04 06:55:37;;;;;;;1.07;0.40;;;;;;;6.19;79.46;97807.44;5075625;28;20017;-79
2020/12/04 06:58:03;;;;;;;1.17;0.40;;;;;;;6.15;78.74;97813.38;5073545;28;20020;-78
2020/12/04 07:00:29;;;;;;;1.98;1.20;;;;;;;6.00;81.04;97829.63;5074636;28;20031;-78
2020/12/04 07:02:54;;;;;;;1.13;0.50;;;;;;;6.00;80.22;97816.88;5073811;28;20056;-79
2020/12/04 07:05:23;;;;;;;3.63;0.77;;;;;;;5.96;80.94;97824.56;5075011;28;20128;-79
2020/12/04 07:07:49;;;;;;;3.87;0.50;;;;;;;5.98;79.95;97830.50;5073884;28;20032;-77
2020/12/04 07:10:14;;;;;;;3.33;0.50;;;;;;;6.00;79.77;97833.88;5074947;28;20074;-78
2020/12/04 07:12:41;;;;;;;2.15;0.68;;;;;;;6.05;79.20;97849.97;5074821;28;20024;-78
2020/12/04 07:15:06;;;;;;;2.07;0.63;;;;;;;6.05;79.74;97857.63;5072994;28;20025;-77
2020/12/04 07:17:32;;;;;;;3.88;1.17;;;;;;;6.11;78.61;97855.03;5073384;28;20413;-77
2020/12/04 07:20:01;;;;;;;2.50;0.80;;;;;;;6.13;78.93;97856.72;5074356;28;20455;-82
2020/12/04 07:22:27;;;;;;;3.40;0.90;;;;;;;6.13;79.07;97866.91;5072987;28;20024;-78
2020/12/04 07:24:55;;;;;;;7.03;0.87;;;;;;;6.09;78.94;97870.31;5072861;28;20028;-78
2020/12/04 07:27:30;;;;;;;3.70;0.90;;;;;;;6.07;79.00;97882.25;5072802;28;20027;-77
2020/12/04 07:29:55;;;;;;;3.73;1.67;;;;;;;5.99;79.77;97899.28;5073570;28;20707;-78
2020/12/04 07:32:22;;;;;;;2.72;1.13;;;;;;;6.03;80.29;97898.41;5072368;28;20021;-78
2020/12/04 07:34:47;;;;;;;1.13;0.60;;;;;;;6.03;80.21;97906.06;5071237;28;20509;-77
2020/12/04 07:37:13;;;;;;;3.10;0.80;;;;;;;6.02;80.92;97912.00;5071759;28;20024;-79
2020/12/04 07:39:40;;;;;;;3.35;1.23;;;;;;;6.02;80.30;97916.25;5072119;28;20111;-82
2020/12/04 07:42:08;;;;;;;2.40;1.03;;;;;;;5.99;80.09;97926.47;5072617;28;20098;-79
2020/12/04 07:44:36;;;;;;;3.13;1.00;;;;;;;5.95;80.01;97920.53;5072383;28;20025;-77
2020/12/04 07:47:15;;;;;;;1.33;0.73;;;;;;;5.96;79.09;97934.97;5072979;28;20558;-78
2020/12/04 07:49:52;;;;;;;2.67;1.23;;;;;;;5.91;78.59;97937.53;5070139;28;20036;-78
2020/12/04 07:52:25;;;;;;;3.13;0.80;;;;;;;5.87;78.82;97945.19;5070996;28;20054;-80
2020/12/04 07:54:56;;;;;;;1.40;0.63;;;;;;;5.79;78.71;97947.72;5072018;28;20493;-79
2020/12/04 07:57:27;;;;;;;1.30;0.90;;;;;;;5.80;78.34;97967.25;5072036;28;20016;-78
2020/12/04 07:59:55;;;;;;;2.40;1.20;;;;;;;5.82;77.59;97972.34;5071844;28;20620;-78
2020/12/04 08:02:23;;;;;;;0.67;0.37;;;;;;;5.83;77.45;97979.13;5072443;28;20024;-78
2020/12/04 08:04:49;;;;;;;0.80;0.40;;;;;;;5.83;78.02;97989.31;5071639;28;20089;-80
2020/12/04 08:07:14;;;;;;;2.17;1.50;;;;;;;5.88;78.34;98002.91;5072545;28;20032;-77
2020/12/04 08:09:44;;;;;;;2.58;0.43;;;;;;;5.90;77.99;98016.53;5070574;28;20028;-78
2020/12/04 08:12:15;;;;;;;3.20;0.57;;;;;;;5.91;78.24;98019.06;5072167;28;20459;-79
2020/12/04 08:14:48;;;;;;;5.17;0.70;;;;;;;5.91;77.60;98033.50;5072120;28;20017;-79
2020/12/04 08:17:17;;;;;;;1.33;0.40;;;;;;;5.93;77.11;98025.00;5069963;28;20037;-79
2020/12/04 08:19:43;;;;;;;1.90;0.57;;;;;;;5.92;77.66;98038.59;5070718;28;20063;-79
2020/12/04 08:22:08;;;;;;;1.55;0.88;;;;;;;5.97;77.94;98053.03;5071657;28;20752;-78
2020/12/04 08:24:39;;;;;;;1.03;0.60;;;;;;;5.94;77.90;98053.88;5070389;28;20107;-78
2020/12/04 08:27:15;;;;;;;1.60;0.60;;;;;;;5.94;78.68;98064.06;5071246;28;20063;-77
2020/12/04 08:29:42;;;;;;;2.87;1.13;;;;;;;5.92;78.73;98056.44;5071260;28;20033;-79
2020/12/04 08:32:27;;;;;;;1.27;0.70;;;;;;;5.99;77.54;98061.50;5075295;28;20103;-78
2020/12/04 08:35:07;;;;;;;1.87;1.30;;;;;;;5.93;78.69;98070.00;5072991;28;20047;-79
2020/12/04 08:37:32;;;;;;;1.70;1.20;;;;;;;6.00;78.04;98064.03;5070937;28;20070;-79
2020/12/04 08:39:58;;;;;;;2.17;1.27;;;;;;;6.01;78.04;98049.59;5073892;28;20524;-79
2020/12/04 08:42:34;;;;;;;3.30;1.83;;;;;;;5.99;79.08;98062.34;5073044;28;20044;-78
2020/12/04 08:45:06;;;;;;;6.75;2.55;;;;;;;5.99;79.30;98080.19;5072562;28;20298;-77
2020/12/04 08:47:36;;;;;;;1.70;1.20;;;;;;;6.01;78.60;98081.03;5071532;28;20028;-77
2020/12/04 08:50:14;;;;;;;2.23;1.37;;;;;;;6.01;79.12;98091.22;5072494;28;20111;-78
2020/12/04 08:52:48;;;;;;;1.67;1.03;;;;;;;6.01;78.38;98101.41;5070934;28;20166;-78
2020/12/04 08:55:24;;;;;;;5.87;1.60;;;;;;;6.02;79.25;98103.09;5071673;28;20023;-78
2020/12/04 08:57:55;;;;;;;3.90;1.50;;;;;;;6.02;79.03;98104.81;5072832;28;20024;-79
2020/12/04 09:00:28;;;;;;;1.60;0.73;;;;;;;6.02;78.81;98103.09;5072262;28;20021;-79
2020/12/04 09:03:19;;;;;;;2.57;1.30;;;;;;;6.10;78.47;98106.47;5071428;28;20024;-78
2020/12/04 09:05:45;;;;;;;3.67;0.93;;;;;;;6.21;76.29;98107.31;5069110;28;20128;-78
2020/12/04 09:08:11;;;;;;;1.30;0.80;;;;;;;6.12;76.25;98116.66;5072370;28;20514;-79
2020/12/04 09:10:37;;;;;;;1.30;0.90;;;;;;;6.15;78.01;98112.41;5071740;28;20545;-81
2020/12/04 09:13:04;;;;;;;2.05;0.88;;;;;;;6.11;77.60;98113.28;5070394;28;20032;-78
2020/12/04 09:15:29;;;;;;;3.93;2.10;;;;;;;6.15;77.31;98120.06;5071995;28;20461;-80
2020/12/04 09:17:55;;;;;;;1.25;0.65;;;;;;;6.08;77.09;98133.66;5071135;28;20107;-79
2020/12/04 09:20:22;;;;;;;1.92;1.05;;;;;;;6.09;76.78;98139.63;5072277;28;20024;-77
2020/12/04 09:22:48;;;;;;;3.17;1.60;;;;;;;6.09;78.64;98143.00;5070964;28;20046;-79
2020/12/04 09:25:14;;;;;;;5.20;2.10;;;;;;;6.07;77.95;98141.31;5069272;28;20021;-77
2020/12/04 09:27:41;;;;;;;2.00;1.27;;;;;;;6.13;77.88;98156.59;5069885;28;20025;-76
2020/12/04 09:30:08;;;;;;;;;;;;;;;6.05;78.17;98151.53;5068282;28;20456;-75
2020/12/04 09:32:33;;;;;;;1.95;0.88;;;;;;;6.08;77.56;98163.41;5068318;28;19921;-75
2020/12/04 09:34:59;;;;;;;1.98;1.10;;;;;;;6.13;77.59;98164.25;5067221;28;20701;-75
2020/12/04 09:37:32;;;;;;;1.58;0.90;;;;;;;6.14;76.25;98169.34;5067311;28;20060;-75
2020/12/04 09:40:05;;;;;;;4.40;1.50;;;;;;;6.11;77.42;98178.69;5067814;28;20379;-74
2020/12/04 09:42:31;;;;;;;2.07;1.10;;;;;;;6.14;77.41;98176.97;5068562;28;20028;-74
2020/12/04 09:44:56;;;;;;;;;;;;;;;6.12;76.36;98185.47;5067561;28;20492;-74
2020/12/04 09:47:25;;;;;;;1.83;1.00;;;;;;;6.13;75.80;98177.84;5068894;28;20322;-75
2020/12/04 09:49:51;;;;;;;1.83;0.80;;;;;;;6.15;76.90;98190.56;5067412;28;20422;-75
2020/12/04 09:52:18;;;;;;;1.63;0.80;;;;;;;6.19;76.84;98205.03;5068544;28;20038;-75
2020/12/04 09:54:45;;;;;;;2.10;0.97;;;;;;;6.18;76.97;98201.63;5068519;28;20123;-76
2020/12/04 09:57:12;;;;;;;1.77;0.80;;;;;;;6.20;76.93;98199.94;5067452;28;20028;-76
2020/12/04 09:59:38;;;;;;;2.00;1.00;;;;;;;6.24;74.54;98203.31;5067612;28;20032;-75
2020/12/04 10:02:04;;;;;;;3.07;1.20;;;;;;;6.28;76.07;98204.16;5067305;28;20082;-75
2020/12/04 10:04:30;;;;;;;3.08;0.95;;;;;;;6.22;77.50;98205.88;5067420;28;20064;-76
2020/12/04 10:06:56;;;;;;;2.38;1.20;;;;;;;6.21;77.03;98204.19;5067354;28;20059;-76
2020/12/04 10:09:22;;;;;;;2.58;1.70;;;;;;;6.16;77.95;98213.50;5068911;28;20036;-76
2020/12/04 10:11:48;;;;;;;3.90;1.47;;;;;;;6.25;76.19;98217.78;5068807;28;20118;-75
2020/12/04 10:14:14;;;;;;;1.95;0.98;;;;;;;6.21;77.26;98227.13;5068253;28;20024;-75
2020/12/04 10:16:41;;;;;;;2.17;1.10;;;;;;;6.22;77.22;98228.81;5067460;28;20370;-76
2020/12/04 10:19:07;;;;;;;1.73;0.80;;;;;;;6.27;77.48;98233.06;5068710;28;20024;-77
2020/12/04 10:21:37;;;;;;;1.45;0.95;;;;;;;6.28;77.19;98233.06;5067732;28;20078;-77
2020/12/04 10:24:04;;;;;;;7.83;1.10;;;;;;;6.24;76.45;98234.78;5067146;28;20021;-76
2020/12/04 10:26:29;;;;;;;2.20;1.30;;;;;;;6.33;76.02;98236.44;5068379;28;20032;-75
2020/12/04 10:28:55;;;;;;;2.63;0.90;;;;;;;6.33;75.98;98240.69;5068446;28;20059;-76
2020/12/04 10:31:20;;;;;;;3.60;1.42;;;;;;;6.24;76.77;98256.84;5067863;28;20078;-76
2020/12/04 10:33:46;;;;;;;1.55;0.77;;;;;;;6.30;76.13;98238.16;5066709;28;20901;-74
2020/12/04 10:36:13;;;;;;;3.70;1.10;;;;;;;6.21;76.27;98237.31;5068368;28;20032;-76
2020/12/04 10:38:38;;;;;;;2.60;0.83;;;;;;;6.29;76.02;98251.75;5066804;28;20020;-76
2020/12/04 10:41:04;;;;;;;1.35;0.77;;;;;;;6.30;75.50;98253.44;5066800;28;20405;-75
2020/12/04 10:43:29;;;;;;;1.83;0.80;;;;;;;6.36;74.66;98235.59;5067816;28;20024;-76
2020/12/04 10:45:54;;;;;;;2.90;0.87;;;;;;;6.37;74.63;98263.63;5066828;28;20291;-74
2020/12/04 10:48:19;;;;;;;0.90;0.43;;;;;;;6.42;73.48;98241.53;5066573;28;20028;-75
2020/12/04 10:50:46;;;;;;;0.90;0.50;;;;;;;6.36;74.88;98264.47;5066570;28;20484;-75
2020/12/04 10:53:11;;;;;;;;;;;;;;;6.34;74.27;98267.88;5067086;28;20035;-75
2020/12/04 10:55:36;;;;;;;2.10;0.90;;;;;;;6.35;73.88;98275.53;5067951;28;19916;-76
2020/12/04 10:58:02;;;;;;;2.90;0.60;;;;;;;6.33;73.99;98279.78;5068072;28;20394;-76
2020/12/04 11:00:27;;;;;;;1.65;0.73;;;;;;;6.30;74.53;98284.03;5066789;28;20271;-75
2020/12/04 11:02:58;;;;;;;1.43;0.90;;;;;;;6.24;74.04;98283.19;5066336;28;20448;-76
2020/12/04 11:05:41;;;;;;;2.47;1.00;;;;;;;6.21;74.86;98288.31;5066941;28;20035;-75
2020/12/04 11:08:07;;;;;;;2.47;1.10;;;;;;;6.21;75.31;98288.31;5065744;28;20027;-76
2020/12/04 11:10:33;;;;;;;2.72;1.13;;;;;;;6.21;75.48;98288.31;5067894;28;20016;-75
2020/12/04 11:12:58;;;;;;;6.13;0.98;;;;;;;6.23;75.01;98301.91;5067300;28;20105;-76
2020/12/04 11:15:23;;;;;;;2.27;1.10;;;;;;;6.29;74.81;98305.28;5067653;28;20032;-76
2020/12/04 11:17:49;;;;;;;1.50;0.70;;;;;;;6.20;73.93;98307.00;5067668;28;20783;-75
2020/12/04 11:20:16;;;;;;;1.00;0.50;;;;;;;6.24;73.52;98311.25;5067694;28;20756;-76
2020/12/04 11:22:42;;;;;;;1.43;0.53;;;;;;;6.27;75.17;98312.94;5066245;28;20032;-75
2020/12/04 11:25:08;;;;;;;2.03;0.63;;;;;;;6.27;74.81;98312.09;5066858;28;20032;-75
2020/12/04 11:27:34;;;;;;;;;;;;;;;6.27;74.92;98317.19;5067797;28;20036;-75
2020/12/04 11:29:59;;;;;;;2.30;1.07;;;;;;;6.32;74.96;98318.03;5069184;28;19912;-75
2020/12/04 11:32:24;;;;;;;4.72;1.20;;;;;;;6.37;74.57;98313.78;5071290;28;20059;-75
2020/12/04 11:34:50;;;;;;;1.60;0.90;;;;;;;6.34;75.15;98316.34;5070203;28;20028;-76
2020/12/04 11:37:15;;;;;;;2.13;1.00;;;;;;;6.33;74.53;98310.38;5071424;28;20104;-76
2020/12/04 11:39:40;;;;;;;1.67;0.82;;;;;;;6.30;75.46;98307.00;5070009;28;20327;-76
2020/12/04 11:42:07;;;;;;;3.17;1.83;;;;;;;6.34;75.55;98299.34;5069673;28;20020;-75
2020/12/04 11:44:33;;;;;;;2.23;1.13;;;;;;;6.34;75.31;98301.03;5069500;28;20091;-75